sensor_id;sensor_type;location;lat;lon;timestamp;temperature;humidity
1455;DHT22;721;48.168;12.818;2023-06-22T00:00:46;22.60;5.30
1455;DHT22;721;48.168;12.818;2023-06-22T00:03:13;22.60;5.60
1455;DHT22;721;48.168;12.818;2023-06-22T00:05:39;22.60;6.20
1455;DHT22;721;48.168;12.818;2023-06-22T00:08:06;22.40;7.50
1455;DHT22;721;48.168;12.818;2023-06-22T00:10:33;22.40;8.60
1455;DHT22;721;48.168;12.818;2023-06-22T00:13:00;22.20;9.50
1455;DHT22;721;48.168;12.818;2023-06-22T00:15:29;22.10;9.90
1455;DHT22;721;48.168;12.818;2023-06-22T00:17:55;22.00;10.90
1455;DHT22;721;48.168;12.818;2023-06-22T00:20:24;21.90;12.70
1455;DHT22;721;48.168;12.818;2023-06-22T00:22:53;21.80;13.20
1455;DHT22;721;48.168;12.818;2023-06-22T00:25:20;21.80;13.60
1455;DHT22;721;48.168;12.818;2023-06-22T00:27:47;21.70;12.90
1455;DHT22;721;48.168;12.818;2023-06-22T00:30:15;21.70;13.10
1455;DHT22;721;48.168;12.818;2023-06-22T00:32:43;21.70;13.10
1455;DHT22;721;48.168;12.818;2023-06-22T00:35:11;21.70;13.30
1455;DHT22;721;48.168;12.818;2023-06-22T00:37:38;21.70;14.90
1455;DHT22;721;48.168;12.818;2023-06-22T00:40:08;21.50;16.00
1455;DHT22;721;48.168;12.818;2023-06-22T00:42:37;21.50;15.60
1455;DHT22;721;48.168;12.818;2023-06-22T00:45:05;21.40;15.30
1455;DHT22;721;48.168;12.818;2023-06-22T00:47:32;21.40;15.00
1455;DHT22;721;48.168;12.818;2023-06-22T00:50:02;21.30;15.20
1455;DHT22;721;48.168;12.818;2023-06-22T00:52:29;21.40;14.20
1455;DHT22;721;48.168;12.818;2023-06-22T00:54:59;21.40;13.50
1455;DHT22;721;48.168;12.818;2023-06-22T00:57:28;21.30;14.50
1455;DHT22;721;48.168;12.818;2023-06-22T00:59:55;21.20;14.30
1455;DHT22;721;48.168;12.818;2023-06-22T01:02:22;21.30;14.60
1455;DHT22;721;48.168;12.818;2023-06-22T01:04:49;21.30;13.90
1455;DHT22;721;48.168;12.818;2023-06-22T01:07:22;21.40;13.50
1455;DHT22;721;48.168;12.818;2023-06-22T01:09:59;21.40;13.70
1455;DHT22;721;48.168;12.818;2023-06-22T01:12:30;21.30;13.90
1455;DHT22;721;48.168;12.818;2023-06-22T01:15:04;21.20;14.30
1455;DHT22;721;48.168;12.818;2023-06-22T01:17:32;21.30;14.60
1455;DHT22;721;48.168;12.818;2023-06-22T01:20:00;21.20;15.50
1455;DHT22;721;48.168;12.818;2023-06-22T01:22:40;21.10;16.30
1455;DHT22;721;48.168;12.818;2023-06-22T01:25:15;21.20;15.90
1455;DHT22;721;48.168;12.818;2023-06-22T01:27:53;21.20;15.80
1455;DHT22;721;48.168;12.818;2023-06-22T01:30:24;21.00;18.10
1455;DHT22;721;48.168;12.818;2023-06-22T01:32:54;21.00;18.60
1455;DHT22;721;48.168;12.818;2023-06-22T01:35:22;21.00;18.50
1455;DHT22;721;48.168;12.818;2023-06-22T01:37:50;21.10;17.80
1455;DHT22;721;48.168;12.818;2023-06-22T01:40:17;21.10;17.20
1455;DHT22;721;48.168;12.818;2023-06-22T01:42:44;21.10;18.00
1455;DHT22;721;48.168;12.818;2023-06-22T01:45:12;21.10;17.90
1455;DHT22;721;48.168;12.818;2023-06-22T01:47:41;21.10;18.20
1455;DHT22;721;48.168;12.818;2023-06-22T01:50:09;21.10;17.80
1455;DHT22;721;48.168;12.818;2023-06-22T01:52:36;21.00;18.30
1455;DHT22;721;48.168;12.818;2023-06-22T01:55:03;21.10;18.20
1455;DHT22;721;48.168;12.818;2023-06-22T01:57:32;21.00;18.60
1455;DHT22;721;48.168;12.818;2023-06-22T02:00:01;21.00;18.60
1455;DHT22;721;48.168;12.818;2023-06-22T02:02:32;21.00;18.60
1455;DHT22;721;48.168;12.818;2023-06-22T02:05:05;21.00;18.60
1455;DHT22;721;48.168;12.818;2023-06-22T02:07:36;20.90;18.70
1455;DHT22;721;48.168;12.818;2023-06-22T02:10:07;20.90;18.50
1455;DHT22;721;48.168;12.818;2023-06-22T02:12:35;20.90;18.50
1455;DHT22;721;48.168;12.818;2023-06-22T02:15:03;20.90;18.50
1455;DHT22;721;48.168;12.818;2023-06-22T02:17:30;20.80;19.30
1455;DHT22;721;48.168;12.818;2023-06-22T02:19:58;20.80;18.40
1455;DHT22;721;48.168;12.818;2023-06-22T02:22:26;20.80;20.00
1455;DHT22;721;48.168;12.818;2023-06-22T02:24:53;20.80;19.70
1455;DHT22;721;48.168;12.818;2023-06-22T02:27:20;20.80;19.90
1455;DHT22;721;48.168;12.818;2023-06-22T02:29:46;20.80;19.70
1455;DHT22;721;48.168;12.818;2023-06-22T02:32:13;20.80;18.90
1455;DHT22;721;48.168;12.818;2023-06-22T02:34:43;20.80;18.40
1455;DHT22;721;48.168;12.818;2023-06-22T02:37:13;20.80;18.40
1455;DHT22;721;48.168;12.818;2023-06-22T02:39:41;20.80;18.40
1455;DHT22;721;48.168;12.818;2023-06-22T02:42:08;20.80;19.10
1455;DHT22;721;48.168;12.818;2023-06-22T02:44:36;20.70;19.60
1455;DHT22;721;48.168;12.818;2023-06-22T02:47:04;20.70;19.90
1455;DHT22;721;48.168;12.818;2023-06-22T02:49:31;20.70;19.30
1455;DHT22;721;48.168;12.818;2023-06-22T02:51:58;20.60;19.90
1455;DHT22;721;48.168;12.818;2023-06-22T02:54:24;20.60;19.80
1455;DHT22;721;48.168;12.818;2023-06-22T02:56:52;20.70;19.10
1455;DHT22;721;48.168;12.818;2023-06-22T02:59:19;20.60;19.30
1455;DHT22;721;48.168;12.818;2023-06-22T03:01:49;20.50;19.90
1455;DHT22;721;48.168;12.818;2023-06-22T03:04:16;20.50;20.10
1455;DHT22;721;48.168;12.818;2023-06-22T03:06:42;20.50;20.10
1455;DHT22;721;48.168;12.818;2023-06-22T03:09:09;20.50;20.30
1455;DHT22;721;48.168;12.818;2023-06-22T03:11:36;20.40;20.90
1455;DHT22;721;48.168;12.818;2023-06-22T03:14:04;20.40;20.60
1455;DHT22;721;48.168;12.818;2023-06-22T03:16:31;20.50;21.20
1455;DHT22;721;48.168;12.818;2023-06-22T03:18:58;20.30;21.30
1455;DHT22;721;48.168;12.818;2023-06-22T03:21:27;20.40;21.00
1455;DHT22;721;48.168;12.818;2023-06-22T03:23:54;20.30;21.60
1455;DHT22;721;48.168;12.818;2023-06-22T03:26:21;20.40;21.40
1455;DHT22;721;48.168;12.818;2023-06-22T03:28:48;20.30;21.40
1455;DHT22;721;48.168;12.818;2023-06-22T03:31:16;20.20;21.70
1455;DHT22;721;48.168;12.818;2023-06-22T03:33:47;20.40;21.70
1455;DHT22;721;48.168;12.818;2023-06-22T03:36:13;20.30;21.60
1455;DHT22;721;48.168;12.818;2023-06-22T03:38:41;20.20;22.20
1455;DHT22;721;48.168;12.818;2023-06-22T03:41:08;20.20;23.40
1455;DHT22;721;48.168;12.818;2023-06-22T03:43:35;20.20;22.90
1455;DHT22;721;48.168;12.818;2023-06-22T03:46:02;20.20;24.10
1455;DHT22;721;48.168;12.818;2023-06-22T03:48:30;20.10;24.80
1455;DHT22;721;48.168;12.818;2023-06-22T03:50:57;20.10;25.40
1455;DHT22;721;48.168;12.818;2023-06-22T03:53:23;20.10;26.10
1455;DHT22;721;48.168;12.818;2023-06-22T03:55:52;20.00;26.80
1455;DHT22;721;48.168;12.818;2023-06-22T03:58:19;20.10;26.10
1455;DHT22;721;48.168;12.818;2023-06-22T04:00:47;20.10;26.50
1455;DHT22;721;48.168;12.818;2023-06-22T04:03:14;20.20;26.90
1455;DHT22;721;48.168;12.818;2023-06-22T04:05:42;20.20;26.20
1455;DHT22;721;48.168;12.818;2023-06-22T04:08:09;20.20;26.20
1455;DHT22;721;48.168;12.818;2023-06-22T04:10:36;20.10;27.60
1455;DHT22;721;48.168;12.818;2023-06-22T04:13:03;19.90;29.20
1455;DHT22;721;48.168;12.818;2023-06-22T04:15:29;20.00;28.90
1455;DHT22;721;48.168;12.818;2023-06-22T04:17:56;20.00;28.40
1455;DHT22;721;48.168;12.818;2023-06-22T04:20:23;20.20;27.60
1455;DHT22;721;48.168;12.818;2023-06-22T04:22:53;20.20;27.30
1455;DHT22;721;48.168;12.818;2023-06-22T04:25:21;20.20;27.20
1455;DHT22;721;48.168;12.818;2023-06-22T04:27:48;20.20;26.20
1455;DHT22;721;48.168;12.818;2023-06-22T04:30:15;20.30;25.90
1455;DHT22;721;48.168;12.818;2023-06-22T04:32:42;20.20;26.70
1455;DHT22;721;48.168;12.818;2023-06-22T04:35:09;20.30;26.30
1455;DHT22;721;48.168;12.818;2023-06-22T04:37:36;20.40;25.50
1455;DHT22;721;48.168;12.818;2023-06-22T04:40:06;20.40;26.30
1455;DHT22;721;48.168;12.818;2023-06-22T04:42:34;20.40;25.50
1455;DHT22;721;48.168;12.818;2023-06-22T04:45:01;20.50;25.20
1455;DHT22;721;48.168;12.818;2023-06-22T04:47:28;20.50;25.00
1455;DHT22;721;48.168;12.818;2023-06-22T04:49:54;20.50;26.30
1455;DHT22;721;48.168;12.818;2023-06-22T04:52:21;20.50;25.50
1455;DHT22;721;48.168;12.818;2023-06-22T04:54:50;20.60;24.50
1455;DHT22;721;48.168;12.818;2023-06-22T04:57:22;20.60;25.80
1455;DHT22;721;48.168;12.818;2023-06-22T04:59:58;20.50;25.20
1455;DHT22;721;48.168;12.818;2023-06-22T05:02:36;20.70;25.20
1455;DHT22;721;48.168;12.818;2023-06-22T05:05:03;20.70;23.50
1455;DHT22;721;48.168;12.818;2023-06-22T05:07:32;20.80;22.90
1455;DHT22;721;48.168;12.818;2023-06-22T05:09:59;20.90;23.20
1455;DHT22;721;48.168;12.818;2023-06-22T05:12:28;20.90;22.60
1455;DHT22;721;48.168;12.818;2023-06-22T05:14:55;21.00;21.70
1455;DHT22;721;48.168;12.818;2023-06-22T05:17:22;21.10;21.50
1455;DHT22;721;48.168;12.818;2023-06-22T05:19:48;21.10;20.90
1455;DHT22;721;48.168;12.818;2023-06-22T05:22:15;21.10;20.70
1455;DHT22;721;48.168;12.818;2023-06-22T05:24:42;21.20;19.90
1455;DHT22;721;48.168;12.818;2023-06-22T05:27:10;21.40;18.90
1455;DHT22;721;48.168;12.818;2023-06-22T05:29:38;21.50;18.90
1455;DHT22;721;48.168;12.818;2023-06-22T05:32:05;21.60;19.00
1455;DHT22;721;48.168;12.818;2023-06-22T05:34:32;21.70;19.10
1455;DHT22;721;48.168;12.818;2023-06-22T05:36:59;21.80;17.80
1455;DHT22;721;48.168;12.818;2023-06-22T05:39:26;22.20;17.70
1455;DHT22;721;48.168;12.818;2023-06-22T05:41:52;22.00;16.40
1455;DHT22;721;48.168;12.818;2023-06-22T05:44:19;22.10;15.80
1455;DHT22;721;48.168;12.818;2023-06-22T05:46:47;22.10;15.30
1455;DHT22;721;48.168;12.818;2023-06-22T05:49:15;22.20;14.50
1455;DHT22;721;48.168;12.818;2023-06-22T05:51:42;22.30;13.40
1455;DHT22;721;48.168;12.818;2023-06-22T05:54:09;22.50;13.00
1455;DHT22;721;48.168;12.818;2023-06-22T05:56:35;22.60;13.90
1455;DHT22;721;48.168;12.818;2023-06-22T05:59:03;22.70;12.90
1455;DHT22;721;48.168;12.818;2023-06-22T06:01:30;22.70;12.50
1455;DHT22;721;48.168;12.818;2023-06-22T06:04:01;22.90;11.50
1455;DHT22;721;48.168;12.818;2023-06-22T06:06:29;23.10;9.90
1455;DHT22;721;48.168;12.818;2023-06-22T06:08:56;23.20;9.30
1455;DHT22;721;48.168;12.818;2023-06-22T06:11:23;23.40;10.10
1455;DHT22;721;48.168;12.818;2023-06-22T06:13:50;23.50;9.20
1455;DHT22;721;48.168;12.818;2023-06-22T06:16:16;23.60;7.70
1455;DHT22;721;48.168;12.818;2023-06-22T06:18:43;23.70;8.30
1455;DHT22;721;48.168;12.818;2023-06-22T06:21:11;23.80;6.40
1455;DHT22;721;48.168;12.818;2023-06-22T06:23:38;23.90;6.10
1455;DHT22;721;48.168;12.818;2023-06-22T06:26:05;24.00;5.60
1455;DHT22;721;48.168;12.818;2023-06-22T06:28:32;24.00;5.80
1455;DHT22;721;48.168;12.818;2023-06-22T06:30:59;24.20;7.00
1455;DHT22;721;48.168;12.818;2023-06-22T06:33:26;24.30;5.60
1455;DHT22;721;48.168;12.818;2023-06-22T06:35:53;24.40;4.50
1455;DHT22;721;48.168;12.818;2023-06-22T06:38:22;24.40;4.60
1455;DHT22;721;48.168;12.818;2023-06-22T06:40:49;24.60;3.60
1455;DHT22;721;48.168;12.818;2023-06-22T06:43:16;24.80;3.30
1455;DHT22;721;48.168;12.818;2023-06-22T06:45:43;25.00;1.90
1455;DHT22;721;48.168;12.818;2023-06-22T06:48:09;25.00;2.70
1455;DHT22;721;48.168;12.818;2023-06-22T06:50:36;25.20;2.10
1455;DHT22;721;48.168;12.818;2023-06-22T06:53:03;25.30;2.10
1455;DHT22;721;48.168;12.818;2023-06-22T06:55:32;25.30;1.80
1455;DHT22;721;48.168;12.818;2023-06-22T06:57:59;25.50;1.20
1455;DHT22;721;48.168;12.818;2023-06-22T07:00:26;25.60;1.60
1455;DHT22;721;48.168;12.818;2023-06-22T07:02:53;25.50;1.00
1455;DHT22;721;48.168;12.818;2023-06-22T07:05:20;25.50;1.00
1455;DHT22;721;48.168;12.818;2023-06-22T07:07:46;25.60;1.30
1455;DHT22;721;48.168;12.818;2023-06-22T07:10:13;25.60;1.00
1455;DHT22;721;48.168;12.818;2023-06-22T07:12:42;25.70;1.00
1455;DHT22;721;48.168;12.818;2023-06-22T07:15:09;25.70;1.00
1455;DHT22;721;48.168;12.818;2023-06-22T07:17:38;25.70;1.00
1455;DHT22;721;48.168;12.818;2023-06-22T07:20:07;25.70;1.00
1455;DHT22;721;48.168;12.818;2023-06-22T07:22:37;25.80;1.00
1455;DHT22;721;48.168;12.818;2023-06-22T07:25:05;25.80;1.00
1455;DHT22;721;48.168;12.818;2023-06-22T07:27:35;26.00;1.00
1455;DHT22;721;48.168;12.818;2023-06-22T07:30:05;26.00;1.00
1455;DHT22;721;48.168;12.818;2023-06-22T07:32:32;26.10;1.00
1455;DHT22;721;48.168;12.818;2023-06-22T07:34:59;26.30;1.00
1455;DHT22;721;48.168;12.818;2023-06-22T07:37:27;26.30;1.00
1455;DHT22;721;48.168;12.818;2023-06-22T07:39:54;26.30;1.00
1455;DHT22;721;48.168;12.818;2023-06-22T07:42:24;26.50;1.00
1455;DHT22;721;48.168;12.818;2023-06-22T07:44:50;26.70;1.00
1455;DHT22;721;48.168;12.818;2023-06-22T07:47:19;26.80;1.00
1455;DHT22;721;48.168;12.818;2023-06-22T07:49:46;26.90;1.00
1455;DHT22;721;48.168;12.818;2023-06-22T07:52:12;27.00;1.00
1455;DHT22;721;48.168;12.818;2023-06-22T07:54:39;27.20;1.00
1455;DHT22;721;48.168;12.818;2023-06-22T07:57:06;27.30;1.00
1455;DHT22;721;48.168;12.818;2023-06-22T07:59:33;27.60;1.00
1455;DHT22;721;48.168;12.818;2023-06-22T08:01:59;27.70;1.00
1455;DHT22;721;48.168;12.818;2023-06-22T08:04:30;27.70;1.00
1455;DHT22;721;48.168;12.818;2023-06-22T08:06:59;27.90;1.00
1455;DHT22;721;48.168;12.818;2023-06-22T08:09:28;28.20;1.00
1455;DHT22;721;48.168;12.818;2023-06-22T08:11:54;28.20;1.00
1455;DHT22;721;48.168;12.818;2023-06-22T08:14:22;28.20;1.00
1455;DHT22;721;48.168;12.818;2023-06-22T08:16:48;28.40;1.00
1455;DHT22;721;48.168;12.818;2023-06-22T08:19:15;28.40;1.00
1455;DHT22;721;48.168;12.818;2023-06-22T08:21:44;28.40;1.00
1455;DHT22;721;48.168;12.818;2023-06-22T08:24:11;28.50;1.00
1455;DHT22;721;48.168;12.818;2023-06-22T08:26:38;28.50;1.00
1455;DHT22;721;48.168;12.818;2023-06-22T08:29:05;28.60;1.00
1455;DHT22;721;48.168;12.818;2023-06-22T08:31:32;28.70;1.00
1455;DHT22;721;48.168;12.818;2023-06-22T08:34:00;28.80;1.00
1455;DHT22;721;48.168;12.818;2023-06-22T08:36:26;28.90;1.00
1455;DHT22;721;48.168;12.818;2023-06-22T08:38:57;29.10;1.00
1455;DHT22;721;48.168;12.818;2023-06-22T08:41:28;29.30;1.00
1455;DHT22;721;48.168;12.818;2023-06-22T08:43:55;29.40;1.00
1455;DHT22;721;48.168;12.818;2023-06-22T08:46:22;29.40;1.00
1455;DHT22;721;48.168;12.818;2023-06-22T08:48:55;29.50;1.00
1455;DHT22;721;48.168;12.818;2023-06-22T08:51:22;29.60;1.00
1455;DHT22;721;48.168;12.818;2023-06-22T08:53:49;29.60;1.00
1455;DHT22;721;48.168;12.818;2023-06-22T08:56:17;29.70;1.00
1455;DHT22;721;48.168;12.818;2023-06-22T08:58:44;29.80;1.00
1455;DHT22;721;48.168;12.818;2023-06-22T09:01:11;29.90;1.00
1455;DHT22;721;48.168;12.818;2023-06-22T09:03:38;30.00;1.00
1455;DHT22;721;48.168;12.818;2023-06-22T09:06:04;30.10;1.00
1455;DHT22;721;48.168;12.818;2023-06-22T09:08:32;30.10;1.00
1455;DHT22;721;48.168;12.818;2023-06-22T09:10:58;30.20;1.00
1455;DHT22;721;48.168;12.818;2023-06-22T09:15:55;30.20;1.00
1455;DHT22;721;48.168;12.818;2023-06-22T09:18:22;30.20;1.00
1455;DHT22;721;48.168;12.818;2023-06-22T09:20:49;30.40;1.00
1455;DHT22;721;48.168;12.818;2023-06-22T09:23:16;30.40;1.00
1455;DHT22;721;48.168;12.818;2023-06-22T09:25:42;30.50;1.00
1455;DHT22;721;48.168;12.818;2023-06-22T09:28:09;30.80;1.00
1455;DHT22;721;48.168;12.818;2023-06-22T09:30:37;30.90;1.00
1455;DHT22;721;48.168;12.818;2023-06-22T09:33:04;31.00;1.00
1455;DHT22;721;48.168;12.818;2023-06-22T09:35:31;31.20;1.00
1455;DHT22;721;48.168;12.818;2023-06-22T09:37:58;31.40;1.00
1455;DHT22;721;48.168;12.818;2023-06-22T09:40:24;31.50;1.00
1455;DHT22;721;48.168;12.818;2023-06-22T09:42:51;31.50;1.00
1455;DHT22;721;48.168;12.818;2023-06-22T09:45:18;31.50;1.00
1455;DHT22;721;48.168;12.818;2023-06-22T09:47:46;31.60;1.00
1455;DHT22;721;48.168;12.818;2023-06-22T09:50:13;31.50;1.00
1455;DHT22;721;48.168;12.818;2023-06-22T09:52:40;31.50;1.00
1455;DHT22;721;48.168;12.818;2023-06-22T09:55:10;31.70;1.00
1455;DHT22;721;48.168;12.818;2023-06-22T09:57:37;31.90;1.00
1455;DHT22;721;48.168;12.818;2023-06-22T10:00:04;31.80;1.00
1455;DHT22;721;48.168;12.818;2023-06-22T10:02:34;31.90;1.00
1455;DHT22;721;48.168;12.818;2023-06-22T10:05:02;31.80;1.00
1455;DHT22;721;48.168;12.818;2023-06-22T10:07:29;31.90;1.00
1455;DHT22;721;48.168;12.818;2023-06-22T10:09:56;32.00;1.00
1455;DHT22;721;48.168;12.818;2023-06-22T10:12:23;32.00;1.00
1455;DHT22;721;48.168;12.818;2023-06-22T10:14:50;32.00;1.00
1455;DHT22;721;48.168;12.818;2023-06-22T10:17:16;32.10;1.00
1455;DHT22;721;48.168;12.818;2023-06-22T10:19:43;32.20;1.00
1455;DHT22;721;48.168;12.818;2023-06-22T10:22:11;32.30;1.00
1455;DHT22;721;48.168;12.818;2023-06-22T10:24:38;32.40;1.00
1455;DHT22;721;48.168;12.818;2023-06-22T10:27:10;32.40;1.00
1455;DHT22;721;48.168;12.818;2023-06-22T10:29:37;32.50;1.00
1455;DHT22;721;48.168;12.818;2023-06-22T10:32:05;32.50;1.00
1455;DHT22;721;48.168;12.818;2023-06-22T10:34:32;32.60;1.00
1455;DHT22;721;48.168;12.818;2023-06-22T10:36:59;32.50;1.00
1455;DHT22;721;48.168;12.818;2023-06-22T10:39:27;32.60;1.00
1455;DHT22;721;48.168;12.818;2023-06-22T10:41:54;32.70;1.00
1455;DHT22;721;48.168;12.818;2023-06-22T10:44:21;32.90;1.00
1455;DHT22;721;48.168;12.818;2023-06-22T10:46:48;33.00;1.00
1455;DHT22;721;48.168;12.818;2023-06-22T10:49:15;33.10;1.00
1455;DHT22;721;48.168;12.818;2023-06-22T10:51:41;33.30;1.00
1455;DHT22;721;48.168;12.818;2023-06-22T10:54:08;33.50;1.00
1455;DHT22;721;48.168;12.818;2023-06-22T10:56:36;33.60;1.00
1455;DHT22;721;48.168;12.818;2023-06-22T10:59:03;33.50;1.00
1455;DHT22;721;48.168;12.818;2023-06-22T11:01:30;33.50;1.00
1455;DHT22;721;48.168;12.818;2023-06-22T11:03:58;33.50;1.00
1455;DHT22;721;48.168;12.818;2023-06-22T11:06:25;33.50;1.00
1455;DHT22;721;48.168;12.818;2023-06-22T11:08:52;33.70;1.00
1455;DHT22;721;48.168;12.818;2023-06-22T11:11:19;33.70;1.00
1455;DHT22;721;48.168;12.818;2023-06-22T11:13:47;33.80;1.00
1455;DHT22;721;48.168;12.818;2023-06-22T11:16:14;33.70;1.00
1455;DHT22;721;48.168;12.818;2023-06-22T11:18:41;33.90;1.00
1455;DHT22;721;48.168;12.818;2023-06-22T11:21:08;34.00;1.00
1455;DHT22;721;48.168;12.818;2023-06-22T11:23:35;34.10;1.00
1455;DHT22;721;48.168;12.818;2023-06-22T11:26:01;34.20;1.00
1455;DHT22;721;48.168;12.818;2023-06-22T11:28:28;34.20;1.00
1455;DHT22;721;48.168;12.818;2023-06-22T11:30:56;34.10;1.00
1455;DHT22;721;48.168;12.818;2023-06-22T11:33:23;34.30;1.00
1455;DHT22;721;48.168;12.818;2023-06-22T11:35:50;34.30;1.00
1455;DHT22;721;48.168;12.818;2023-06-22T11:38:17;34.40;1.00
1455;DHT22;721;48.168;12.818;2023-06-22T11:40:44;34.30;1.00
1455;DHT22;721;48.168;12.818;2023-06-22T11:43:10;34.40;1.00
1455;DHT22;721;48.168;12.818;2023-06-22T11:45:37;34.40;1.00
1455;DHT22;721;48.168;12.818;2023-06-22T11:48:06;34.50;1.00
1455;DHT22;721;48.168;12.818;2023-06-22T11:50:32;34.60;1.00
1455;DHT22;721;48.168;12.818;2023-06-22T11:53:01;34.50;1.00
1455;DHT22;721;48.168;12.818;2023-06-22T11:55:28;34.60;1.00
1455;DHT22;721;48.168;12.818;2023-06-22T11:57:56;34.70;1.00
1455;DHT22;721;48.168;12.818;2023-06-22T12:00:25;34.80;1.00
1455;DHT22;721;48.168;12.818;2023-06-22T12:02:52;34.90;1.00
1455;DHT22;721;48.168;12.818;2023-06-22T12:05:21;34.80;1.00
1455;DHT22;721;48.168;12.818;2023-06-22T12:07:48;35.00;1.00
1455;DHT22;721;48.168;12.818;2023-06-22T12:10:15;35.00;1.00
1455;DHT22;721;48.168;12.818;2023-06-22T12:12:42;35.10;1.00
1455;DHT22;721;48.168;12.818;2023-06-22T12:15:09;35.20;1.00
1455;DHT22;721;48.168;12.818;2023-06-22T12:17:37;35.20;1.00
1455;DHT22;721;48.168;12.818;2023-06-22T12:20:05;35.30;1.00
1455;DHT22;721;48.168;12.818;2023-06-22T12:22:34;35.20;1.00
1455;DHT22;721;48.168;12.818;2023-06-22T12:25:03;35.40;1.00
1455;DHT22;721;48.168;12.818;2023-06-22T12:27:30;35.60;1.00
1455;DHT22;721;48.168;12.818;2023-06-22T12:29:57;35.60;1.00
1455;DHT22;721;48.168;12.818;2023-06-22T12:32:24;35.70;1.00
1455;DHT22;721;48.168;12.818;2023-06-22T12:34:51;35.80;1.00
1455;DHT22;721;48.168;12.818;2023-06-22T12:37:18;35.80;1.00
1455;DHT22;721;48.168;12.818;2023-06-22T12:39:46;35.80;1.00
1455;DHT22;721;48.168;12.818;2023-06-22T12:42:13;35.80;1.00
1455;DHT22;721;48.168;12.818;2023-06-22T12:44:40;35.70;1.00
1455;DHT22;721;48.168;12.818;2023-06-22T12:47:07;35.70;1.00
1455;DHT22;721;48.168;12.818;2023-06-22T12:49:34;35.80;1.00
1455;DHT22;721;48.168;12.818;2023-06-22T12:52:01;35.90;1.00
1455;DHT22;721;48.168;12.818;2023-06-22T12:54:28;35.80;1.00
1455;DHT22;721;48.168;12.818;2023-06-22T12:56:56;35.70;1.00
1455;DHT22;721;48.168;12.818;2023-06-22T12:59:23;35.80;1.00
1455;DHT22;721;48.168;12.818;2023-06-22T13:01:50;36.00;1.00
1455;DHT22;721;48.168;12.818;2023-06-22T13:04:16;36.00;1.00
1455;DHT22;721;48.168;12.818;2023-06-22T13:06:44;36.00;1.00
1455;DHT22;721;48.168;12.818;2023-06-22T13:09:14;36.10;1.00
1455;DHT22;721;48.168;12.818;2023-06-22T13:11:40;36.10;1.00
1455;DHT22;721;48.168;12.818;2023-06-22T13:14:09;36.00;1.00
1455;DHT22;721;48.168;12.818;2023-06-22T13:16:36;36.00;1.00
1455;DHT22;721;48.168;12.818;2023-06-22T13:19:02;36.00;1.00
1455;DHT22;721;48.168;12.818;2023-06-22T13:21:30;36.00;1.00
1455;DHT22;721;48.168;12.818;2023-06-22T13:23:57;36.00;1.00
1455;DHT22;721;48.168;12.818;2023-06-22T13:26:24;36.20;1.00
1455;DHT22;721;48.168;12.818;2023-06-22T13:28:53;36.20;1.00
1455;DHT22;721;48.168;12.818;2023-06-22T13:31:21;36.10;1.00
1455;DHT22;721;48.168;12.818;2023-06-22T13:33:48;36.20;1.00
1455;DHT22;721;48.168;12.818;2023-06-22T13:36:17;36.30;1.00
1455;DHT22;721;48.168;12.818;2023-06-22T13:38:45;36.20;1.00
1455;DHT22;721;48.168;12.818;2023-06-22T13:41:11;36.40;1.00
1455;DHT22;721;48.168;12.818;2023-06-22T13:43:38;36.50;1.00
1455;DHT22;721;48.168;12.818;2023-06-22T13:46:05;36.60;1.00
1455;DHT22;721;48.168;12.818;2023-06-22T13:48:33;36.80;1.00
1455;DHT22;721;48.168;12.818;2023-06-22T13:51:00;36.90;1.00
1455;DHT22;721;48.168;12.818;2023-06-22T13:53:26;37.10;1.00
1455;DHT22;721;48.168;12.818;2023-06-22T13:55:53;37.30;1.00
1455;DHT22;721;48.168;12.818;2023-06-22T13:58:20;37.30;1.00
1455;DHT22;721;48.168;12.818;2023-06-22T14:00:47;37.20;1.00
1455;DHT22;721;48.168;12.818;2023-06-22T14:03:14;37.20;1.00
1455;DHT22;721;48.168;12.818;2023-06-22T14:05:43;36.90;1.00
1455;DHT22;721;48.168;12.818;2023-06-22T14:08:11;36.90;1.00
1455;DHT22;721;48.168;12.818;2023-06-22T14:10:38;36.80;1.00
1455;DHT22;721;48.168;12.818;2023-06-22T14:13:04;36.60;1.00
1455;DHT22;721;48.168;12.818;2023-06-22T14:15:32;36.50;1.00
1455;DHT22;721;48.168;12.818;2023-06-22T14:17:59;36.70;1.00
1455;DHT22;721;48.168;12.818;2023-06-22T14:20:26;36.50;1.00
1455;DHT22;721;48.168;12.818;2023-06-22T14:22:54;36.50;1.00
1455;DHT22;721;48.168;12.818;2023-06-22T14:25:20;36.70;1.00
1455;DHT22;721;48.168;12.818;2023-06-22T14:27:47;36.70;1.00
1455;DHT22;721;48.168;12.818;2023-06-22T14:30:14;36.70;1.00
1455;DHT22;721;48.168;12.818;2023-06-22T14:32:43;36.80;1.00
1455;DHT22;721;48.168;12.818;2023-06-22T14:35:10;36.60;1.00
1455;DHT22;721;48.168;12.818;2023-06-22T14:37:37;36.70;1.00
1455;DHT22;721;48.168;12.818;2023-06-22T14:40:06;36.80;1.00
1455;DHT22;721;48.168;12.818;2023-06-22T14:42:33;36.90;1.00
1455;DHT22;721;48.168;12.818;2023-06-22T14:44:59;36.90;1.00
1455;DHT22;721;48.168;12.818;2023-06-22T14:47:26;37.00;1.00
1455;DHT22;721;48.168;12.818;2023-06-22T14:49:54;37.10;1.00
1455;DHT22;721;48.168;12.818;2023-06-22T14:52:20;37.30;1.00
1455;DHT22;721;48.168;12.818;2023-06-22T14:54:47;37.30;1.00
1455;DHT22;721;48.168;12.818;2023-06-22T14:57:18;37.30;1.00
1455;DHT22;721;48.168;12.818;2023-06-22T14:59:45;37.10;1.00
1455;DHT22;721;48.168;12.818;2023-06-22T15:02:12;37.00;1.00
1455;DHT22;721;48.168;12.818;2023-06-22T15:04:39;37.00;1.00
1455;DHT22;721;48.168;12.818;2023-06-22T15:07:06;36.90;1.00
1455;DHT22;721;48.168;12.818;2023-06-22T15:09:32;37.10;1.00
1455;DHT22;721;48.168;12.818;2023-06-22T15:11:59;37.10;1.00
1455;DHT22;721;48.168;12.818;2023-06-22T15:14:32;37.10;1.00
1455;DHT22;721;48.168;12.818;2023-06-22T15:16:59;37.00;1.00
1455;DHT22;721;48.168;12.818;2023-06-22T15:19:26;37.10;1.00
1455;DHT22;721;48.168;12.818;2023-06-22T15:21:52;37.20;1.00
1455;DHT22;721;48.168;12.818;2023-06-22T15:24:19;37.00;1.00
1455;DHT22;721;48.168;12.818;2023-06-22T15:26:46;37.10;1.00
1455;DHT22;721;48.168;12.818;2023-06-22T15:29:13;37.20;1.00
1455;DHT22;721;48.168;12.818;2023-06-22T15:31:41;37.20;1.00
1455;DHT22;721;48.168;12.818;2023-06-22T15:34:08;37.30;1.00
1455;DHT22;721;48.168;12.818;2023-06-22T15:36:35;37.60;1.00
1455;DHT22;721;48.168;12.818;2023-06-22T15:39:01;37.70;1.00
1455;DHT22;721;48.168;12.818;2023-06-22T15:41:28;37.70;1.00
1455;DHT22;721;48.168;12.818;2023-06-22T15:43:55;37.70;1.00
1455;DHT22;721;48.168;12.818;2023-06-22T15:46:22;37.70;1.00
1455;DHT22;721;48.168;12.818;2023-06-22T15:48:50;37.90;1.00
1455;DHT22;721;48.168;12.818;2023-06-22T15:51:17;38.20;1.00
1455;DHT22;721;48.168;12.818;2023-06-22T15:53:44;38.10;1.00
1455;DHT22;721;48.168;12.818;2023-06-22T15:56:11;38.20;1.00
1455;DHT22;721;48.168;12.818;2023-06-22T15:58:38;38.30;1.00
1455;DHT22;721;48.168;12.818;2023-06-22T16:01:05;38.10;1.00
1455;DHT22;721;48.168;12.818;2023-06-22T16:03:32;37.90;1.00
1455;DHT22;721;48.168;12.818;2023-06-22T16:06:00;38.00;1.00
1455;DHT22;721;48.168;12.818;2023-06-22T16:08:26;38.10;1.00
1455;DHT22;721;48.168;12.818;2023-06-22T16:10:55;38.30;1.00
1455;DHT22;721;48.168;12.818;2023-06-22T16:13:22;38.40;1.00
1455;DHT22;721;48.168;12.818;2023-06-22T16:15:49;38.10;1.00